F/V Carmalia — FMFK — position and weather

sailwx.info

Track history (hours):
 
Tides and Currents Weather Stations Pressure Air Temp Water Temp Dewpoint Dewpoint Depression Visibility Wind Speed Wind Dir Waves Ship Positions

F/V Carmalia

Last reported at 2017-Nov-19 13:03 UTC. Time now 2017-Nov-23 17:03 UTC.
Position N 49°45' W 001°54'.

Length 17 m.

Type: Fishing. MMSI: 228222900.

Date/timePositionNaut miles runAvg speedWind from/ knotsBaromVisibWave heightAir tempDewpointWater temp
2017-Nov-19 13:03N 49°45' W 001°54'113.1
2017-Nov-19 13:00N 49°45' W 001°53'611.5
2017-Nov-19 12:30N 49°43' W 001°45'5 9.8
2017-Nov-19 12:00N 49°40' W 001°39'2 4.0
2017-Nov-19 11:30N 49°39' W 001°37'0 0.0
2017-Nov-19 11:00N 49°39' W 001°37'0 0.0
2017-Nov-19 10:30N 49°39' W 001°37'0 0.3
2017-Nov-19 10:00N 49°38' W 001°37'0 0.0
2017-Nov-19 09:30N 49°38' W 001°37'0 0.0
2017-Nov-19 09:00N 49°38' W 001°37'0 0.0
2017-Nov-19 08:30N 49°38' W 001°37'1 2.8
2017-Nov-19 08:00N 49°40' W 001°38'611.2
2017-Nov-19 07:30N 49°44' W 001°44'612.4
2017-Nov-19 07:00N 49°48' W 001°50'611.1
2017-Nov-19 06:29N 49°52' W 001°57'8 0.4
2017-Nov-18 11:27N 50°00' W 001°59'15 0.7
2017-Nov-17 12:50N 49°45' W 001°54'412.3
2017-Nov-17 12:30N 49°43' W 001°48'510.1
2017-Nov-17 12:00N 49°41' W 001°41'3 6.9
2017-Nov-17 11:30N 49°39' W 001°37'1 1.1
2017-Nov-17 11:00N 49°38' W 001°37'0 0.0
2017-Nov-17 10:31N 49°38' W 001°37'0 0.0
2017-Nov-17 10:00N 49°38' W 001°37'0 0.0
2017-Nov-17 09:30N 49°38' W 001°37'0 0.0
2017-Nov-17 09:00N 49°38' W 001°37'0 0.0
2017-Nov-17 08:30N 49°38' W 001°37'0 0.0
2017-Nov-17 08:00N 49°38' W 001°37'1 2.4
2017-Nov-17 07:30N 49°40' W 001°37'5 9.8
2017-Nov-17 07:00N 49°42' W 001°44'510.1
2017-Nov-17 06:31N 49°44' W 001°51'19 9.8
2017-Nov-17 04:33N 49°46' W 002°20'2 8.1
2017-Nov-17 04:14N 49°45' W 002°24'4 7.5
2017-Nov-17 03:45N 49°45' W 002°30'2 6.8
2017-Nov-17 03:27N 49°45' W 002°33'7 0.6
2017-Nov-16 16:32N 49°47' W 002°43'0 1.6
2017-Nov-16 16:26N 49°47' W 002°43'31 1.3
2017-Nov-15 17:17N 49°51' W 001°55'2 6.9
2017-Nov-15 17:00N 49°50' W 001°53'3 6.7
2017-Nov-15 16:30N 49°47' W 001°50'4 7.1
2017-Nov-15 16:00N 49°44' W 001°46'4 7.9
2017-Nov-15 15:30N 49°41' W 001°42'4 8.1
2017-Nov-15 15:01N 49°39' W 001°37'1 1.6
2017-Nov-15 14:30N 49°39' W 001°37'0 0.0
2017-Nov-15 14:00N 49°39' W 001°37'0 0.0
2017-Nov-15 13:30N 49°39' W 001°37'0 0.0
2017-Nov-15 13:01N 49°39' W 001°37'0 0.0
2017-Nov-15 12:30N 49°39' W 001°37'0 0.0
2017-Nov-15 12:01N 49°39' W 001°37'0 0.0
2017-Nov-15 11:30N 49°39' W 001°37'0 0.0
2017-Nov-15 11:01N 49°39' W 001°37'0 0.0
2017-Nov-15 10:31N 49°39' W 001°37'0 0.0
2017-Nov-15 10:00N 49°39' W 001°37'0 0.0
2017-Nov-15 09:30N 49°39' W 001°37'0 0.0
2017-Nov-15 09:01N 49°39' W 001°37'0 0.0
2017-Nov-15 08:30N 49°39' W 001°37'0 0.0
2017-Nov-15 08:00N 49°39' W 001°37'0 0.0
2017-Nov-15 07:31N 49°39' W 001°37'0 0.0
2017-Nov-15 07:00N 49°39' W 001°37'0 0.0
2017-Nov-15 06:30N 49°39' W 001°37'0 0.0
2017-Nov-15 06:01N 49°39' W 001°37'0 0.0
2017-Nov-15 05:30N 49°39' W 001°37'0 0.0
2017-Nov-15 05:01N 49°39' W 001°37'0 0.0
2017-Nov-15 04:31N 49°39' W 001°37'0 0.0
2017-Nov-15 04:01N 49°39' W 001°37'0 0.0
2017-Nov-15 03:30N 49°39' W 001°37'0 0.0
2017-Nov-15 03:00N 49°39' W 001°37'0 0.0
2017-Nov-15 02:30N 49°39' W 001°37'0 0.0
2017-Nov-15 02:00N 49°39' W 001°37'0 0.0
2017-Nov-15 01:30N 49°39' W 001°37'0 0.0
2017-Nov-15 01:00N 49°39' W 001°37'0 0.0
2017-Nov-15 00:30N 49°39' W 001°37'0 0.0
2017-Nov-15 00:01N 49°39' W 001°37'0 0.0
2017-Nov-14 23:31N 49°39' W 001°37'0 0.0
2017-Nov-14 23:01N 49°39' W 001°37'0 0.0
2017-Nov-14 22:31N 49°39' W 001°37'0 0.0
2017-Nov-14 22:00N 49°39' W 001°37'0 0.0
2017-Nov-14 21:30N 49°39' W 001°37'0 0.0
2017-Nov-14 21:01N 49°39' W 001°37'0 0.0
2017-Nov-14 20:31N 49°39' W 001°37'0 0.0
2017-Nov-14 20:00N 49°39' W 001°37'0 0.0
2017-Nov-14 19:30N 49°39' W 001°37'0 0.0
2017-Nov-14 19:01N 49°39' W 001°37'0 0.0
2017-Nov-14 18:30N 49°39' W 001°37'0 0.0
2017-Nov-14 18:00N 49°39' W 001°37'0 0.0
2017-Nov-14 17:30N 49°39' W 001°37'0 0.0
2017-Nov-14 17:00N 49°39' W 001°37'0 0.0
2017-Nov-14 16:30N 49°39' W 001°37'0 0.0
2017-Nov-14 16:00N 49°39' W 001°37'0 0.0
2017-Nov-14 15:30N 49°39' W 001°37'0 0.0
2017-Nov-14 15:00N 49°39' W 001°37'0 0.0
2017-Nov-14 14:30N 49°39' W 001°37'0 0.0
2017-Nov-14 14:00N 49°39' W 001°37'0 0.0
2017-Nov-14 13:30N 49°39' W 001°37'0 0.0
2017-Nov-14 13:01N 49°39' W 001°37'0 0.0
2017-Nov-14 12:31N 49°39' W 001°37'0 0.0
2017-Nov-14 12:00N 49°39' W 001°37'0 0.0
2017-Nov-14 11:30N 49°39' W 001°37'0 0.0
2017-Nov-14 11:00N 49°39' W 001°37'0 0.0
2017-Nov-14 10:31N 49°39' W 001°37'0 0.0
2017-Nov-14 10:00N 49°39' W 001°37'0 0.0
2017-Nov-14 09:31N 49°39' W 001°37'0 0.0
2017-Nov-14 09:00N 49°39' W 001°37'0 0.0
2017-Nov-14 08:30N 49°39' W 001°37'0 0.0
2017-Nov-14 08:01N 49°39' W 001°37'0 0.0
2017-Nov-14 07:31N 49°39' W 001°37'0 0.0
2017-Nov-14 07:00N 49°39' W 001°37'0 0.0
2017-Nov-14 06:31N 49°39' W 001°37'0 0.0
2017-Nov-14 06:00N 49°39' W 001°37'0 0.0
2017-Nov-14 05:31N 49°39' W 001°37'0 0.0
2017-Nov-14 05:01N 49°39' W 001°37'0 0.0
2017-Nov-14 04:30N 49°39' W 001°37'0 0.0
2017-Nov-14 04:00N 49°39' W 001°37'0 0.0
2017-Nov-14 03:30N 49°39' W 001°37'0 0.0
2017-Nov-14 03:00N 49°39' W 001°37'0 0.0
2017-Nov-14 02:30N 49°39' W 001°37'14 0.4
2017-Nov-12 15:47N 49°52' W 001°36'1 3.8
2017-Nov-12 15:30N 49°53' W 001°36'3 5.5
2017-Nov-12 15:01N 49°54' W 001°41'3 6.0
2017-Nov-12 14:30N 49°53' W 001°45'3 6.1
2017-Nov-12 14:01N 49°53' W 001°50'3 6.4
2017-Nov-12 13:30N 49°53' W 001°55'5 0.1
2017-Nov-10 17:16N 49°59' W 001°58'2 7.1
2017-Nov-10 17:00N 49°57' W 001°56'4 7.8
2017-Nov-10 16:30N 49°54' W 001°53'4 7.8
2017-Nov-10 16:00N 49°50' W 001°49'4 8.0
2017-Nov-10 15:30N 49°47' W 001°46'4 7.7
2017-Nov-10 15:00N 49°44' W 001°43'4 7.4
2017-Nov-10 14:31N 49°41' W 001°39'3 5.7
2017-Nov-10 14:00N 49°38' W 001°37'0 0.0
2017-Nov-10 13:30N 49°38' W 001°37'0 0.0
2017-Nov-10 13:00N 49°38' W 001°37'0 0.0
2017-Nov-10 12:30N 49°38' W 001°37'0 0.0
2017-Nov-10 12:00N 49°38' W 001°37'0 0.0
2017-Nov-10 11:30N 49°38' W 001°37'0 0.0
2017-Nov-10 11:00N 49°38' W 001°37'1 2.8
2017-Nov-10 10:31N 49°40' W 001°37'611.3
2017-Nov-10 10:00N 49°43' W 001°45'611.3
2017-Nov-10 09:31N 49°45' W 001°53'  
Track history (hours):
 
Tides and Currents Weather Stations Pressure Air Temp Water Temp Dewpoint Dewpoint Depression Visibility Wind Speed Wind Dir Waves Ship Positions

F/V Carmalia

Last reported at 2017-Nov-19 13:03 UTC. Time now 2017-Nov-23 17:03 UTC.
Position N 49°45' W 001°54'.

Length 17 m.

Type: Fishing. MMSI: 228222900.

Date/timePositionNaut miles runAvg speedWind from/ knotsBaromVisibWave heightAir tempDewpointWater temp
2017-Nov-19 13:03N 49°45' W 001°54'113.1
2017-Nov-19 13:00N 49°45' W 001°53'611.5
2017-Nov-19 12:30N 49°43' W 001°45'5 9.8
2017-Nov-19 12:00N 49°40' W 001°39'2 4.0
2017-Nov-19 11:30N 49°39' W 001°37'0 0.0
2017-Nov-19 11:00N 49°39' W 001°37'0 0.0
2017-Nov-19 10:30N 49°39' W 001°37'0 0.3
2017-Nov-19 10:00N 49°38' W 001°37'0 0.0
2017-Nov-19 09:30N 49°38' W 001°37'0 0.0
2017-Nov-19 09:00N 49°38' W 001°37'0 0.0
2017-Nov-19 08:30N 49°38' W 001°37'1 2.8
2017-Nov-19 08:00N 49°40' W 001°38'611.2
2017-Nov-19 07:30N 49°44' W 001°44'612.4
2017-Nov-19 07:00N 49°48' W 001°50'611.1
2017-Nov-19 06:29N 49°52' W 001°57'8 0.4
2017-Nov-18 11:27N 50°00' W 001°59'15 0.7
2017-Nov-17 12:50N 49°45' W 001°54'412.3
2017-Nov-17 12:30N 49°43' W 001°48'510.1
2017-Nov-17 12:00N 49°41' W 001°41'3 6.9
2017-Nov-17 11:30N 49°39' W 001°37'1 1.1
2017-Nov-17 11:00N 49°38' W 001°37'0 0.0
2017-Nov-17 10:31N 49°38' W 001°37'0 0.0
2017-Nov-17 10:00N 49°38' W 001°37'0 0.0
2017-Nov-17 09:30N 49°38' W 001°37'0 0.0
2017-Nov-17 09:00N 49°38' W 001°37'0 0.0
2017-Nov-17 08:30N 49°38' W 001°37'0 0.0
2017-Nov-17 08:00N 49°38' W 001°37'1 2.4
2017-Nov-17 07:30N 49°40' W 001°37'5 9.8
2017-Nov-17 07:00N 49°42' W 001°44'510.1
2017-Nov-17 06:31N 49°44' W 001°51'19 9.8
2017-Nov-17 04:33N 49°46' W 002°20'2 8.1
2017-Nov-17 04:14N 49°45' W 002°24'4 7.5
2017-Nov-17 03:45N 49°45' W 002°30'2 6.8
2017-Nov-17 03:27N 49°45' W 002°33'7 0.6
2017-Nov-16 16:32N 49°47' W 002°43'0 1.6
2017-Nov-16 16:26N 49°47' W 002°43'31 1.3
2017-Nov-15 17:17N 49°51' W 001°55'2 6.9
2017-Nov-15 17:00N 49°50' W 001°53'3 6.7
2017-Nov-15 16:30N 49°47' W 001°50'4 7.1
2017-Nov-15 16:00N 49°44' W 001°46'4 7.9
2017-Nov-15 15:30N 49°41' W 001°42'4 8.1
2017-Nov-15 15:01N 49°39' W 001°37'1 1.6
2017-Nov-15 14:30N 49°39' W 001°37'0 0.0
2017-Nov-15 14:00N 49°39' W 001°37'0 0.0
2017-Nov-15 13:30N 49°39' W 001°37'0 0.0
2017-Nov-15 13:01N 49°39' W 001°37'0 0.0
2017-Nov-15 12:30N 49°39' W 001°37'0 0.0
2017-Nov-15 12:01N 49°39' W 001°37'0 0.0
2017-Nov-15 11:30N 49°39' W 001°37'0 0.0
2017-Nov-15 11:01N 49°39' W 001°37'0 0.0
2017-Nov-15 10:31N 49°39' W 001°37'0 0.0
2017-Nov-15 10:00N 49°39' W 001°37'0 0.0
2017-Nov-15 09:30N 49°39' W 001°37'0 0.0
2017-Nov-15 09:01N 49°39' W 001°37'0 0.0
2017-Nov-15 08:30N 49°39' W 001°37'0 0.0
2017-Nov-15 08:00N 49°39' W 001°37'0 0.0
2017-Nov-15 07:31N 49°39' W 001°37'0 0.0
2017-Nov-15 07:00N 49°39' W 001°37'0 0.0
2017-Nov-15 06:30N 49°39' W 001°37'0 0.0
2017-Nov-15 06:01N 49°39' W 001°37'0 0.0
2017-Nov-15 05:30N 49°39' W 001°37'0 0.0
2017-Nov-15 05:01N 49°39' W 001°37'0 0.0
2017-Nov-15 04:31N 49°39' W 001°37'0 0.0
2017-Nov-15 04:01N 49°39' W 001°37'0 0.0
2017-Nov-15 03:30N 49°39' W 001°37'0 0.0
2017-Nov-15 03:00N 49°39' W 001°37'0 0.0
2017-Nov-15 02:30N 49°39' W 001°37'0 0.0
2017-Nov-15 02:00N 49°39' W 001°37'0 0.0
2017-Nov-15 01:30N 49°39' W 001°37'0 0.0
2017-Nov-15 01:00N 49°39' W 001°37'0 0.0
2017-Nov-15 00:30N 49°39' W 001°37'0 0.0
2017-Nov-15 00:01N 49°39' W 001°37'0 0.0
2017-Nov-14 23:31N 49°39' W 001°37'0 0.0
2017-Nov-14 23:01N 49°39' W 001°37'0 0.0
2017-Nov-14 22:31N 49°39' W 001°37'0 0.0
2017-Nov-14 22:00N 49°39' W 001°37'0 0.0
2017-Nov-14 21:30N 49°39' W 001°37'0 0.0
2017-Nov-14 21:01N 49°39' W 001°37'0 0.0
2017-Nov-14 20:31N 49°39' W 001°37'0 0.0
2017-Nov-14 20:00N 49°39' W 001°37'0 0.0
2017-Nov-14 19:30N 49°39' W 001°37'0 0.0
2017-Nov-14 19:01N 49°39' W 001°37'0 0.0
2017-Nov-14 18:30N 49°39' W 001°37'0 0.0
2017-Nov-14 18:00N 49°39' W 001°37'0 0.0
2017-Nov-14 17:30N 49°39' W 001°37'0 0.0
2017-Nov-14 17:00N 49°39' W 001°37'0 0.0
2017-Nov-14 16:30N 49°39' W 001°37'0 0.0
2017-Nov-14 16:00N 49°39' W 001°37'0 0.0
2017-Nov-14 15:30N 49°39' W 001°37'0 0.0
2017-Nov-14 15:00N 49°39' W 001°37'0 0.0
2017-Nov-14 14:30N 49°39' W 001°37'0 0.0
2017-Nov-14 14:00N 49°39' W 001°37'0 0.0
2017-Nov-14 13:30N 49°39' W 001°37'0 0.0
2017-Nov-14 13:01N 49°39' W 001°37'0 0.0
2017-Nov-14 12:31N 49°39' W 001°37'0 0.0
2017-Nov-14 12:00N 49°39' W 001°37'0 0.0
2017-Nov-14 11:30N 49°39' W 001°37'0 0.0
2017-Nov-14 11:00N 49°39' W 001°37'0 0.0
2017-Nov-14 10:31N 49°39' W 001°37'0 0.0
2017-Nov-14 10:00N 49°39' W 001°37'0 0.0
2017-Nov-14 09:31N 49°39' W 001°37'0 0.0
2017-Nov-14 09:00N 49°39' W 001°37'0 0.0
2017-Nov-14 08:30N 49°39' W 001°37'0 0.0
2017-Nov-14 08:01N 49°39' W 001°37'0 0.0
2017-Nov-14 07:31N 49°39' W 001°37'0 0.0
2017-Nov-14 07:00N 49°39' W 001°37'0 0.0
2017-Nov-14 06:31N 49°39' W 001°37'0 0.0
2017-Nov-14 06:00N 49°39' W 001°37'0 0.0
2017-Nov-14 05:31N 49°39' W 001°37'0 0.0
2017-Nov-14 05:01N 49°39' W 001°37'0 0.0
2017-Nov-14 04:30N 49°39' W 001°37'0 0.0
2017-Nov-14 04:00N 49°39' W 001°37'0 0.0
2017-Nov-14 03:30N 49°39' W 001°37'0 0.0
2017-Nov-14 03:00N 49°39' W 001°37'0 0.0
2017-Nov-14 02:30N 49°39' W 001°37'14 0.4
2017-Nov-12 15:47N 49°52' W 001°36'1 3.8
2017-Nov-12 15:30N 49°53' W 001°36'3 5.5
2017-Nov-12 15:01N 49°54' W 001°41'3 6.0
2017-Nov-12 14:30N 49°53' W 001°45'3 6.1
2017-Nov-12 14:01N 49°53' W 001°50'3 6.4
2017-Nov-12 13:30N 49°53' W 001°55'5 0.1
2017-Nov-10 17:16N 49°59' W 001°58'2 7.1
2017-Nov-10 17:00N 49°57' W 001°56'4 7.8
2017-Nov-10 16:30N 49°54' W 001°53'4 7.8
2017-Nov-10 16:00N 49°50' W 001°49'4 8.0
2017-Nov-10 15:30N 49°47' W 001°46'4 7.7
2017-Nov-10 15:00N 49°44' W 001°43'4 7.4
2017-Nov-10 14:31N 49°41' W 001°39'3 5.7
2017-Nov-10 14:00N 49°38' W 001°37'0 0.0
2017-Nov-10 13:30N 49°38' W 001°37'0 0.0
2017-Nov-10 13:00N 49°38' W 001°37'0 0.0
2017-Nov-10 12:30N 49°38' W 001°37'0 0.0
2017-Nov-10 12:00N 49°38' W 001°37'0 0.0
2017-Nov-10 11:30N 49°38' W 001°37'0 0.0
2017-Nov-10 11:00N 49°38' W 001°37'1 2.8
2017-Nov-10 10:31N 49°40' W 001°37'611.3
2017-Nov-10 10:00N 49°43' W 001°45'611.3
2017-Nov-10 09:31N 49°45' W 001°53'  

Dump ship's entire track history